createdAt,value
2024-03-09T00:00:45.621Z,0.65
2024-03-09T00:05:49.768Z,0.80
2024-03-09T00:10:55.121Z,0.70
2024-03-09T00:16:00.477Z,0.70
2024-03-09T00:21:07.762Z,0.80
2024-03-09T00:26:13.232Z,0.60
2024-03-09T00:31:18.080Z,0.70
2024-03-09T00:41:28.507Z,0.50
2024-03-09T00:46:32.501Z,0.68
2024-03-09T00:51:36.389Z,0.63
2024-03-09T00:56:41.705Z,0.77
2024-03-09T01:01:45.891Z,0.65
2024-03-09T01:06:50.015Z,0.60
2024-03-09T01:11:55.478Z,0.80
2024-03-09T01:17:01.371Z,0.60
2024-03-09T01:22:07.817Z,0.80
2024-03-09T01:27:13.295Z,0.70
2024-03-09T01:32:17.967Z,0.95
2024-03-09T01:37:23.807Z,0.90
2024-03-09T01:42:30.672Z,0.70
2024-03-09T01:47:35.520Z,0.63
2024-03-09T01:52:40.873Z,0.73
2024-03-09T01:57:47.376Z,0.60
2024-03-09T02:02:53.813Z,0.60
2024-03-09T02:07:57.745Z,0.55
2024-03-09T02:13:04.006Z,0.53
2024-03-09T02:18:08.842Z,0.40
2024-03-09T02:28:20.152Z,0.70
2024-03-09T02:33:24.353Z,0.50
2024-03-09T02:38:28.204Z,0.60
2024-03-09T02:43:38.236Z,0.60
2024-03-09T02:48:44.922Z,0.50
2024-03-09T02:53:48.810Z,0.47
2024-03-09T02:58:54.083Z,0.60
2024-03-09T03:04:00.371Z,0.70
2024-03-09T03:09:13.650Z,0.68
2024-03-09T03:14:19.571Z,0.88
2024-03-09T03:19:24.159Z,0.50
2024-03-09T03:24:28.014Z,0.60
2024-03-09T03:29:34.272Z,0.50
2024-03-09T03:34:39.126Z,0.57
2024-03-09T03:44:47.859Z,0.93
2024-03-09T03:49:52.321Z,0.50
2024-03-09T03:54:57.203Z,0.88
2024-03-09T04:05:06.630Z,0.90
2024-03-09T04:10:15.635Z,1.10
2024-03-09T04:15:21.075Z,1.58
2024-03-09T04:20:28.563Z,1.48
2024-03-09T04:25:34.296Z,1.50
2024-03-09T04:30:40.312Z,1.40
2024-03-09T04:35:46.593Z,1.52
2024-03-09T04:40:51.866Z,1.60
2024-03-09T04:45:57.430Z,1.35
2024-03-09T04:51:02.486Z,1.25
2024-03-09T04:56:07.749Z,1.60
2024-03-09T05:01:13.169Z,1.52
2024-03-09T05:06:17.269Z,1.60
2024-03-09T05:11:21.174Z,1.47
2024-03-09T05:16:26.724Z,1.70
2024-03-09T05:21:35.636Z,1.20
2024-03-09T05:26:44.257Z,1.48
2024-03-09T05:31:49.888Z,1.40
2024-03-09T05:36:54.666Z,1.50
2024-03-09T05:41:58.778Z,1.27
2024-03-09T05:47:04.461Z,1.30
2024-03-09T05:52:09.392Z,1.10
2024-03-09T06:02:18.592Z,1.00
2024-03-09T06:07:22.498Z,0.98
2024-03-09T06:12:26.934Z,0.70
2024-03-09T06:17:32.633Z,0.95
2024-03-09T06:22:36.738Z,1.30
2024-03-09T06:27:40.851Z,0.90
2024-03-09T06:32:46.468Z,0.87
2024-03-09T06:37:58.024Z,0.80
2024-03-09T06:43:02.498Z,1.08
2024-03-09T06:53:12.835Z,1.00
2024-03-09T06:58:16.735Z,1.00
2024-03-09T07:03:22.053Z,1.00
2024-03-09T07:08:27.202Z,0.80
2024-03-09T07:13:31.211Z,1.27
2024-03-09T07:18:38.391Z,0.80
2024-03-09T07:23:42.542Z,1.00
2024-03-09T07:28:46.481Z,0.95
2024-03-09T07:33:54.718Z,1.00
2024-03-09T07:38:58.608Z,1.02
2024-03-09T07:44:03.288Z,0.95
2024-03-09T07:49:09.157Z,1.00
2024-03-09T07:54:13.091Z,0.90
2024-03-09T07:59:18.784Z,1.10
2024-03-09T08:04:24.142Z,1.08
2024-03-09T08:09:29.629Z,1.00
2024-03-09T08:14:35.513Z,1.00
2024-03-09T08:19:41.097Z,1.20
2024-03-09T08:24:45.246Z,1.05
2024-03-09T08:29:51.545Z,1.00
2024-03-09T08:34:57.147Z,1.00
2024-03-09T08:40:01.070Z,1.00
2024-03-09T08:45:07.458Z,0.90
2024-03-09T08:50:13.357Z,1.00
2024-03-09T08:55:17.965Z,1.10
2024-03-09T09:00:27.028Z,1.00
2024-03-09T09:05:33.085Z,0.85
2024-03-09T09:10:37.581Z,0.80
2024-03-09T09:15:44.021Z,0.98
2024-03-09T09:20:49.996Z,1.15
2024-03-09T09:25:54.037Z,0.93
2024-03-09T09:30:57.928Z,0.80
2024-03-09T09:36:03.166Z,0.70
2024-03-09T09:41:08.106Z,0.88
2024-03-09T09:51:21.624Z,0.93
2024-03-09T09:56:25.634Z,0.85
2024-03-09T10:01:29.742Z,1.10
2024-03-09T10:06:35.060Z,0.80
2024-03-09T10:11:56.380Z,0.70
2024-03-09T10:17:11.132Z,1.00
2024-03-09T10:22:17.107Z,0.70
2024-03-09T10:27:22.938Z,0.82
2024-03-09T10:32:28.040Z,0.93
2024-03-09T10:37:33.816Z,0.70
2024-03-09T10:42:44.955Z,1.00
2024-03-09T10:47:54.538Z,0.70
2024-03-09T10:53:20.734Z,0.70
2024-03-09T10:58:27.741Z,1.00
2024-03-09T11:03:33.889Z,0.80
2024-03-09T11:08:39.963Z,0.95
2024-03-09T11:13:45.896Z,0.82
2024-03-09T11:18:58.004Z,0.70
2024-03-09T11:24:09.799Z,0.80
2024-03-09T11:29:14.043Z,0.80
2024-03-09T11:34:22.939Z,0.70
2024-03-09T11:39:31.288Z,0.80
2024-03-09T11:44:35.516Z,0.80
2024-03-09T11:49:42.078Z,0.73
2024-03-09T11:54:51.148Z,0.80
2024-03-09T11:59:55.534Z,0.80
2024-03-09T12:04:59.553Z,0.70
2024-03-09T12:10:05.670Z,0.80
2024-03-09T12:15:11.197Z,0.80
2024-03-09T12:20:15.819Z,1.00
2024-03-09T12:30:25.688Z,0.82
2024-03-09T12:35:30.415Z,0.80
2024-03-09T12:40:35.821Z,0.80
2024-03-09T12:45:41.021Z,1.00
2024-03-09T12:50:44.928Z,0.98
2024-03-09T12:55:52.369Z,1.10
2024-03-09T13:01:13.365Z,0.90
2024-03-09T13:06:17.285Z,0.88
2024-03-09T13:11:23.298Z,0.90
2024-03-09T13:16:27.319Z,0.85
2024-03-09T13:21:31.446Z,0.80
2024-03-09T13:26:36.720Z,1.00
2024-03-09T13:31:40.669Z,0.80
2024-03-09T13:36:44.820Z,1.00
2024-03-09T13:41:50.482Z,0.93
2024-03-09T13:46:54.452Z,0.90
2024-03-09T13:52:01.159Z,0.88
2024-03-09T13:57:07.464Z,1.00
2024-03-09T14:02:14.718Z,0.88
2024-03-09T14:07:23.083Z,0.93
2024-03-09T14:12:28.683Z,1.08
2024-03-09T14:17:33.148Z,1.48
2024-03-09T14:22:37.062Z,1.60
2024-03-09T14:27:42.495Z,1.17
2024-03-09T14:32:48.326Z,0.90
2024-03-09T14:37:54.998Z,1.30
2024-03-09T14:43:03.791Z,1.35
2024-03-09T14:48:10.947Z,1.00
2024-03-09T14:53:16.108Z,1.63
2024-03-09T14:58:21.500Z,1.52
2024-03-09T15:03:33.694Z,1.40
2024-03-09T15:08:38.781Z,1.40
2024-03-09T15:14:02.486Z,1.27
2024-03-09T15:19:06.297Z,1.50
2024-03-09T15:24:12.563Z,1.10
2024-03-09T15:29:17.944Z,1.42
2024-03-09T15:34:21.955Z,1.20
2024-03-09T15:39:28.178Z,1.67
2024-03-09T15:44:33.809Z,1.40
2024-03-09T15:49:37.932Z,1.35
2024-03-09T15:54:43.539Z,1.35
2024-03-09T15:59:49.106Z,1.67
2024-03-09T16:04:53.821Z,1.30
2024-03-09T16:09:57.923Z,1.70
2024-03-09T16:15:05.474Z,1.90
2024-03-09T16:20:10.166Z,1.85
2024-03-09T16:25:14.399Z,1.60
2024-03-09T16:30:30.083Z,1.90
2024-03-09T16:35:34.351Z,1.90
2024-03-09T16:40:41.312Z,2.53
2024-03-09T16:45:46.770Z,2.10
2024-03-09T16:50:51.156Z,2.30
2024-03-09T16:55:55.260Z,2.58
2024-03-09T17:01:06.184Z,2.05
2024-03-09T17:06:11.318Z,2.28
2024-03-09T17:11:15.936Z,2.13
2024-03-09T17:21:25.932Z,2.22
2024-03-09T17:26:33.910Z,2.60
2024-03-09T17:31:39.740Z,2.75
2024-03-09T17:36:44.162Z,3.20
2024-03-09T17:41:48.148Z,4.40
2024-03-09T17:46:56.888Z,5.37
2024-03-09T17:52:00.720Z,4.18
2024-03-09T17:57:04.713Z,3.87
2024-03-09T18:02:10.543Z,3.67
2024-03-09T18:07:14.454Z,3.50
2024-03-09T18:12:19.028Z,3.40
2024-03-09T18:22:28.344Z,3.67
2024-03-09T18:27:32.807Z,3.45
2024-03-09T18:32:38.918Z,3.70
2024-03-09T18:37:45.172Z,3.97
2024-03-09T18:42:51.604Z,4.07
2024-03-09T18:47:59.008Z,4.22
2024-03-09T18:53:03.490Z,3.28
2024-03-09T18:58:10.136Z,3.88
2024-03-09T19:03:16.352Z,5.57
2024-03-09T19:08:23.340Z,3.60
2024-03-09T19:13:27.231Z,3.60
2024-03-09T19:18:50.264Z,3.27
2024-03-09T19:23:54.290Z,3.80
2024-03-09T19:28:58.230Z,4.15
2024-03-09T19:34:03.749Z,3.50
2024-03-09T19:39:10.639Z,4.00
2024-03-09T19:44:15.420Z,6.03
2024-03-09T19:49:21.384Z,3.97
2024-03-09T19:54:25.301Z,4.20
2024-03-09T19:59:29.288Z,4.80
2024-03-09T20:04:38.453Z,3.90
2024-03-09T20:09:43.074Z,4.97
2024-03-09T20:14:46.995Z,4.67
2024-03-09T20:19:54.173Z,4.40
2024-03-09T20:25:00.402Z,4.63
2024-03-09T20:30:04.310Z,4.82
2024-03-09T20:35:12.589Z,4.72
2024-03-09T20:40:19.462Z,4.70
2024-03-09T20:45:24.718Z,4.10
2024-03-09T20:50:31.152Z,4.30
2024-03-09T20:55:35.060Z,4.80
2024-03-09T21:00:39.442Z,4.93
2024-03-09T21:05:44.842Z,4.63
2024-03-09T21:10:51.510Z,4.15
2024-03-09T21:15:56.385Z,4.80
2024-03-09T21:26:06.649Z,4.95
2024-03-09T21:31:11.001Z,4.22
2024-03-09T21:36:16.322Z,4.88
2024-03-09T21:41:20.618Z,4.95
2024-03-09T21:46:24.965Z,4.50
2024-03-09T21:51:30.328Z,3.90
2024-03-09T21:56:34.979Z,4.20
2024-03-09T22:06:45.274Z,4.22
2024-03-09T22:11:49.817Z,4.25
2024-03-09T22:16:53.774Z,4.38
2024-03-09T22:21:58.943Z,3.77
2024-03-09T22:27:02.791Z,4.05
2024-03-09T22:32:07.063Z,3.80
2024-03-09T22:37:13.366Z,4.10
2024-03-09T22:42:17.599Z,4.45
2024-03-09T22:47:22.162Z,3.83
2024-03-09T22:52:27.625Z,3.63
2024-03-09T22:57:31.764Z,3.67
2024-03-09T23:02:35.654Z,3.33
2024-03-09T23:07:41.073Z,2.70
2024-03-09T23:12:45.625Z,2.80
2024-03-09T23:17:53.509Z,3.13
2024-03-09T23:23:00.504Z,4.60
2024-03-09T23:28:08.642Z,4.15
2024-03-09T23:33:12.521Z,4.25
2024-03-09T23:38:19.598Z,4.40
2024-03-09T23:43:23.572Z,4.22
2024-03-09T23:48:28.246Z,4.93
2024-03-09T23:53:35.388Z,4.22
2024-03-09T23:58:40.933Z,4.18
